Rohrbach, Austria
Current Conditions -  °F | °C
As of 6:50 AM on Sunday 21 Dec 2014 (Local Time) from LOWL Reporting Station
Broken Clouds Broken Clouds  
Wind Chill: 31°   Ceiling: 5000
Heat Index: 41°   Visibility: 6mi
Dew Point: 34°   Wind: 24mph
Humidity: 76%   Direction: 280°W
Pressure: 30.33"   Gusts: NA
Location:  48.57°N, 13.98°E
Report Text: LOWL 210450Z 28021KT 9999 FEW018 SCT032 BKN050 05/01 Q1027 NOSIG
Loading
Personal Weather Stations






























Interactive Weather Map New forecast layout! Learn more

10-Day Weather Forecast

Advertisements
Track Severe Weather on mobile